Time;durP1;ratioP1;P1;durP2;ratioP2;P2;SDS_P1;SDS_P2;PMS_P1;PMS_P2;Temp;Humidity;BMP_temperature;BMP_pressure;BME280_temperature;BME280_humidity;BME280_pressure;Samples;Min_cycle;Max_cycle;Signal;HPM_P1;HPM_P2
2022/06/30 00:00:53;;;;;;;6.15;3.85;;;;;;;16.28;100.00;101057.22;5220136;28;20049;-71
2022/06/30 00:03:23;;;;;;;7.55;4.20;;;;;;;16.24;100.00;101058.63;5217089;28;20493;-71
2022/06/30 00:05:54;;;;;;;7.85;4.18;;;;;;;16.16;100.00;101066.91;5213018;28;20251;-70
2022/06/30 00:08:24;;;;;;;7.47;4.28;;;;;;;16.07;100.00;101066.22;5214430;28;20083;-71
2022/06/30 00:10:55;;;;;;;14.85;4.53;;;;;;;16.08;100.00;101067.06;5212164;28;20029;-71
2022/06/30 00:13:25;;;;;;;9.43;4.47;;;;;;;16.07;100.00;101068.94;5206925;28;20029;-70
2022/06/30 00:15:56;;;;;;;8.05;4.30;;;;;;;16.07;100.00;101079.75;5205776;28;20021;-71
2022/06/30 00:18:27;;;;;;;7.30;4.25;;;;;;;16.11;100.00;101080.19;5206539;28;20033;-71
2022/06/30 00:20:58;;;;;;;10.35;4.70;;;;;;;16.13;100.00;101072.72;5217363;28;20119;-71
2022/06/30 00:23:28;;;;;;;7.43;4.80;;;;;;;16.15;100.00;101076.88;5220801;28;20020;-71
2022/06/30 00:25:59;;;;;;;17.15;6.68;;;;;;;16.24;100.00;101081.13;5205569;28;20029;-71
2022/06/30 00:28:29;;;;;;;14.77;7.78;;;;;;;16.30;100.00;101082.19;5205822;28;20035;-72
2022/06/30 00:31:00;;;;;;;17.42;7.65;;;;;;;16.35;100.00;101087.03;5205649;28;20422;-71
2022/06/30 00:33:30;;;;;;;14.15;7.88;;;;;;;16.36;100.00;101084.09;5205659;28;20022;-72
2022/06/30 00:36:01;;;;;;;17.75;8.10;;;;;;;16.41;100.00;101091.63;5217956;28;20025;-71
2022/06/30 00:38:31;;;;;;;18.55;8.88;;;;;;;16.40;100.00;101085.38;5212807;28;20418;-71
2022/06/30 00:41:02;;;;;;;18.30;9.52;;;;;;;16.40;100.00;101088.09;5211476;28;20035;-72
2022/06/30 00:43:41;;;;;;;16.50;9.32;;;;;;;16.41;100.00;101087.06;5218605;28;20052;-72
2022/06/30 00:46:12;;;;;;;19.92;10.48;;;;;;;16.42;100.00;101090.63;5207977;28;20088;-71
2022/06/30 00:48:43;;;;;;;21.15;11.02;;;;;;;16.43;100.00;101092.28;5216088;28;20056;-71
2022/06/30 00:51:14;;;;;;;19.10;11.27;;;;;;;16.44;100.00;101093.97;5219516;28;20033;-72
2022/06/30 00:53:46;;;;;;;20.83;11.30;;;;;;;16.39;100.00;101104.53;5216462;28;20024;-72
2022/06/30 00:56:17;;;;;;;22.70;11.43;;;;;;;16.33;100.00;101103.47;5212198;28;20021;-72
2022/06/30 00:58:51;;;;;;;22.33;11.75;;;;;;;16.28;100.00;101109.47;5225903;28;20029;-72
2022/06/30 01:01:23;;;;;;;20.02;10.82;;;;;;;16.25;100.00;101106.31;5205453;28;20037;-70
2022/06/30 01:03:55;;;;;;;18.27;10.63;;;;;;;16.22;100.00;101112.16;5219087;28;20064;-72
2022/06/30 01:06:26;;;;;;;18.70;10.30;;;;;;;16.17;100.00;101112.72;5216346;28;20025;-71
2022/06/30 01:08:57;;;;;;;23.02;10.23;;;;;;;16.15;100.00;101116.66;5207739;28;20047;-70
2022/06/30 01:14:19;;;;;;;22.55;10.68;;;;;;;16.08;100.00;101115.78;5204935;28;20037;-72
2022/06/30 01:16:50;;;;;;;21.42;10.57;;;;;;;16.04;100.00;101121.56;5219058;28;20017;-71
2022/06/30 01:19:21;;;;;;;19.23;10.43;;;;;;;16.00;100.00;101124.84;5217508;28;20033;-71
2022/06/30 01:22:03;;;;;;;23.38;10.32;;;;;;;15.94;100.00;101131.88;5204557;28;20021;-71
2022/06/30 01:24:34;;;;;;;18.45;10.70;;;;;;;15.87;100.00;101132.88;5215898;28;20064;-72
2022/06/30 01:27:05;;;;;;;18.58;9.32;;;;;;;15.82;100.00;101127.22;5220037;28;20063;-71
2022/06/30 01:29:35;;;;;;;18.88;9.18;;;;;;;15.77;100.00;101122.38;5204713;28;20017;-70
2022/06/30 01:32:06;;;;;;;28.20;11.07;;;;;;;15.76;100.00;101126.94;5224333;28;20029;-70
2022/06/30 01:34:37;;;;;;;20.55;11.13;;;;;;;15.75;100.00;101121.72;5210238;28;20044;-71
2022/06/30 01:37:07;;;;;;;22.08;10.80;;;;;;;15.69;100.00;101127.91;5212073;28;20017;-71
2022/06/30 01:39:38;;;;;;;23.52;9.32;;;;;;;15.63;100.00;101120.53;5210120;28;20040;-71
2022/06/30 01:42:09;;;;;;;19.75;10.23;;;;;;;15.56;100.00;101112.34;5204563;28;20029;-71
2022/06/30 01:44:40;;;;;;;21.50;9.40;;;;;;;15.49;100.00;101114.13;5204499;28;20029;-71
2022/06/30 01:47:10;;;;;;;22.15;10.23;;;;;;;15.44;100.00;101111.19;5212502;28;20025;-71
2022/06/30 01:49:41;;;;;;;19.60;10.95;;;;;;;15.34;100.00;101105.25;5208251;28;20026;-71
2022/06/30 01:52:11;;;;;;;22.15;10.50;;;;;;;15.23;100.00;101110.13;5214506;28;20029;-71
2022/06/30 01:54:42;;;;;;;22.95;10.10;;;;;;;15.14;100.00;101102.31;5210084;28;20032;-70
2022/06/30 01:57:13;;;;;;;18.63;10.50;;;;;;;15.06;100.00;101103.28;5213183;28;20021;-70
2022/06/30 01:59:43;;;;;;;19.38;9.82;;;;;;;15.01;100.00;101120.06;5204515;28;20041;-70
2022/06/30 02:02:14;;;;;;;25.63;11.68;;;;;;;14.97;100.00;101115.22;5216858;28;20044;-72
2022/06/30 02:07:39;;;;;;;22.17;9.55;;;;;;;14.87;100.00;101111.97;5219426;28;20506;-69
2022/06/30 02:10:14;;;;;;;18.90;9.18;;;;;;;14.77;100.00;101098.75;5217161;28;20036;-70
2022/06/30 02:12:53;;;;;;;14.80;10.07;;;;;;;14.68;100.00;101105.28;5219206;28;20052;-69
2022/06/30 02:18:15;;;;;;;15.75;9.57;;;;;;;14.58;100.00;101078.53;5211383;28;20075;-70
2022/06/30 02:20:45;;;;;;;20.95;10.30;;;;;;;14.54;100.00;101085.34;5216636;28;20037;-70
2022/06/30 02:23:16;;;;;;;16.90;9.75;;;;;;;14.46;100.00;101097.06;5223088;28;20025;-70
2022/06/30 02:25:46;;;;;;;20.95;10.43;;;;;;;14.43;100.00;101110.06;5204110;28;20092;-71
2022/06/30 02:28:17;;;;;;;19.60;10.75;;;;;;;14.42;100.00;101100.31;5208166;28;20028;-70
2022/06/30 02:30:47;;;;;;;20.08;9.80;;;;;;;14.41;100.00;101096.78;5213860;28;20033;-70
2022/06/30 02:33:18;;;;;;;18.23;9.98;;;;;;;14.40;100.00;101107.72;5220766;28;20382;-70
2022/06/30 02:35:49;;;;;;;23.80;10.13;;;;;;;14.39;100.00;101106.91;5213135;28;20047;-70
2022/06/30 02:38:19;;;;;;;20.67;9.20;;;;;;;14.35;100.00;101097.47;5208605;28;20017;-70
2022/06/30 02:40:50;;;;;;;22.17;10.50;;;;;;;14.36;100.00;101104.59;5224807;28;20036;-70
2022/06/30 02:43:20;;;;;;;14.93;9.13;;;;;;;14.34;100.00;101109.31;5210843;28;20479;-70
2022/06/30 02:45:51;;;;;;;16.42;9.38;;;;;;;14.31;100.00;101106.13;5224386;28;20036;-70
2022/06/30 02:48:21;;;;;;;23.65;9.57;;;;;;;14.28;100.00;101103.81;5221871;28;20028;-71
2022/06/30 02:50:52;;;;;;;20.92;9.60;;;;;;;14.24;100.00;101103.34;5210941;28;20049;-71
2022/06/30 02:53:23;;;;;;;17.50;9.23;;;;;;;14.18;100.00;101101.38;5215656;28;20025;-71
2022/06/30 02:55:53;;;;;;;22.35;10.10;;;;;;;14.09;100.00;101095.22;5219476;28;20084;-71
2022/06/30 02:58:24;;;;;;;18.67;10.38;;;;;;;14.00;100.00;101099.00;5208219;28;20060;-70
2022/06/30 03:00:54;;;;;;;23.40;11.10;;;;;;;13.93;100.00;101089.97;5220701;28;20029;-70
2022/06/30 03:03:25;;;;;;;21.33;9.50;;;;;;;13.86;100.00;101094.44;5213700;28;20426;-71
2022/06/30 03:05:55;;;;;;;17.15;9.63;;;;;;;13.78;100.00;101110.69;5222016;28;20471;-70
2022/06/30 03:08:26;;;;;;;18.98;9.25;;;;;;;13.72;100.00;101136.50;5211900;28;20021;-70
2022/06/30 03:10:57;;;;;;;16.95;9.55;;;;;;;13.76;100.00;101154.00;5203431;28;20025;-70
2022/06/30 03:13:28;;;;;;;23.20;10.07;;;;;;;13.87;100.00;101134.69;5223430;28;20040;-70
2022/06/30 03:16:01;;;;;;;20.35;9.85;;;;;;;13.95;100.00;101149.97;5203159;28;20018;-69
2022/06/30 03:18:32;;;;;;;28.05;10.95;;;;;;;14.05;100.00;101138.94;5218371;28;20032;-70
2022/06/30 03:21:02;;;;;;;19.02;10.63;;;;;;;14.13;100.00;101158.59;5216211;28;20029;-70
2022/06/30 03:23:33;;;;;;;21.25;10.48;;;;;;;14.17;100.00;101146.41;5217535;28;20042;-71
2022/06/30 03:26:04;;;;;;;26.88;10.10;;;;;;;14.21;100.00;101155.00;5203573;28;20063;-71
2022/06/30 03:28:35;;;;;;;21.45;9.15;;;;;;;14.24;100.00;101151.91;5221533;28;20056;-71
2022/06/30 03:31:05;;;;;;;19.35;9.18;;;;;;;14.32;100.00;101151.00;5216323;28;20072;-71
2022/06/30 03:33:37;;;;;;;21.60;9.80;;;;;;;14.36;100.00;101147.75;5225655;28;20028;-71
2022/06/30 03:36:07;;;;;;;25.50;9.98;;;;;;;14.41;100.00;101156.16;5214168;28;20407;-70
2022/06/30 03:38:38;;;;;;;25.02;8.93;;;;;;;14.43;100.00;101155.97;5220432;28;20034;-70
2022/06/30 03:41:08;;;;;;;21.80;9.70;;;;;;;14.43;100.00;101150.56;5205830;28;20037;-70
2022/06/30 03:43:39;;;;;;;18.15;9.00;;;;;;;14.44;100.00;101144.13;5219172;28;20033;-70
2022/06/30 03:46:09;;;;;;;20.75;7.85;;;;;;;14.48;100.00;101149.00;5206874;28;20021;-70
2022/06/30 03:48:41;;;;;;;21.48;7.95;;;;;;;14.50;100.00;101141.56;5206610;28;20024;-70
2022/06/30 03:51:12;;;;;;;18.42;7.07;;;;;;;14.53;100.00;101147.63;5219875;28;20410;-70
2022/06/30 03:53:42;;;;;;;21.48;7.55;;;;;;;14.54;100.00;101158.22;5206772;28;20025;-71
2022/06/30 03:56:13;;;;;;;22.80;7.18;;;;;;;14.56;100.00;101153.50;5211091;28;20021;-71
2022/06/30 03:58:43;;;;;;;16.45;6.70;;;;;;;14.57;100.00;101160.56;5208378;28;20456;-71
2022/06/30 04:01:13;;;;;;;23.25;7.13;;;;;;;14.58;100.00;101147.91;5212595;28;20104;-70
2022/06/30 04:03:44;;;;;;;16.52;7.15;;;;;;;14.61;100.00;101151.09;5213739;28;20033;-70
2022/06/30 04:06:14;;;;;;;16.83;6.90;;;;;;;14.66;100.00;101154.06;5218806;28;20024;-70
2022/06/30 04:08:45;;;;;;;23.73;7.05;;;;;;;14.67;100.00;101155.75;5206155;28;20059;-72
2022/06/30 04:11:16;;;;;;;16.25;6.72;;;;;;;14.69;100.00;101156.38;5214713;28;20032;-72
2022/06/30 04:13:46;;;;;;;16.33;6.50;;;;;;;14.72;100.00;101158.72;5224123;28;20067;-71
2022/06/30 04:16:17;;;;;;;23.25;6.97;;;;;;;14.77;100.00;101153.59;5215898;28;20017;-70
2022/06/30 04:18:47;;;;;;;20.05;6.45;;;;;;;14.83;100.00;101157.41;5209335;28;20033;-70
2022/06/30 04:21:18;;;;;;;24.95;6.93;;;;;;;14.87;100.00;101150.63;5205859;28;20052;-71
2022/06/30 04:23:48;;;;;;;15.25;6.53;;;;;;;14.90;100.00;101160.19;5206438;28;20033;-71
2022/06/30 04:26:19;;;;;;;26.65;7.18;;;;;;;14.94;100.00;101170.44;5205431;28;20108;-71
2022/06/30 04:28:49;;;;;;;19.02;6.85;;;;;;;14.95;100.00;101165.88;5216703;28;20471;-71
2022/06/30 04:34:09;;;;;;;20.27;6.60;;;;;;;15.04;100.00;101170.16;5205614;28;20029;-70
2022/06/30 04:36:40;;;;;;;11.73;5.97;;;;;;;15.08;100.00;101159.81;5222403;28;20118;-70
2022/06/30 04:39:10;;;;;;;12.80;6.10;;;;;;;15.14;100.00;101157.19;5225497;28;20037;-72
2022/06/30 04:41:41;;;;;;;18.60;6.75;;;;;;;15.19;100.00;101154.75;5226450;28;20343;-72
2022/06/30 04:44:11;;;;;;;22.17;6.72;;;;;;;15.20;100.00;101153.72;5224825;28;20386;-72
2022/06/30 04:46:42;;;;;;;18.77;6.65;;;;;;;15.22;100.00;101167.06;5223022;28;20013;-71
2022/06/30 04:49:12;;;;;;;18.35;6.40;;;;;;;15.24;100.00;101165.84;5225559;28;20029;-71
2022/06/30 04:51:43;;;;;;;21.88;6.47;;;;;;;15.26;100.00;101162.94;5226070;28;20039;-71
2022/06/30 04:54:13;;;;;;;20.67;6.63;;;;;;;15.29;100.00;101167.97;5212434;28;20036;-71
2022/06/30 04:56:44;;;;;;;16.63;6.00;;;;;;;15.30;100.00;101169.66;5217475;28;20360;-71
2022/06/30 04:59:14;;;;;;;21.50;6.60;;;;;;;15.34;100.00;101172.81;5207668;28;20025;-71
2022/06/30 05:01:45;;;;;;;20.17;6.22;;;;;;;15.35;100.00;101167.22;5215536;28;20101;-72
2022/06/30 05:04:15;;;;;;;17.23;5.93;;;;;;;15.37;100.00;101173.28;5222172;28;20032;-71
2022/06/30 05:06:46;;;;;;;14.00;6.03;;;;;;;15.40;100.00;101177.47;5224960;28;20107;-71
2022/06/30 05:09:16;;;;;;;18.67;6.18;;;;;;;15.45;100.00;101180.44;5206676;28;20029;-70
2022/06/30 05:11:47;;;;;;;17.30;6.60;;;;;;;15.46;100.00;101161.34;5217678;28;20521;-70
2022/06/30 05:14:17;;;;;;;14.80;5.30;;;;;;;15.55;100.00;101168.28;5204785;28;20040;-71
2022/06/30 05:16:48;;;;;;;15.98;6.22;;;;;;;15.59;100.00;101176.84;5204823;28;20029;-71
2022/06/30 05:19:18;;;;;;;17.95;5.57;;;;;;;15.61;100.00;101182.91;5204908;28;20026;-71
2022/06/30 05:21:49;;;;;;;18.83;5.72;;;;;;;15.68;100.00;101180.31;5220142;28;20025;-71
2022/06/30 05:27:08;;;;;;;15.82;5.40;;;;;;;15.84;100.00;101171.13;5218235;28;20022;-71
2022/06/30 05:29:39;;;;;;;16.50;6.93;;;;;;;15.89;100.00;101164.09;5220334;28;20024;-71
2022/06/30 05:32:09;;;;;;;14.88;5.00;;;;;;;16.04;100.00;101156.75;5211222;28;20025;-72
2022/06/30 05:34:40;;;;;;;14.30;6.65;;;;;;;16.16;100.00;101165.16;5224839;28;20150;-71
2022/06/30 05:37:13;;;;;;;11.80;4.82;;;;;;;16.28;100.00;101157.38;5224624;28;20049;-71
2022/06/30 05:39:43;;;;;;;17.10;5.15;;;;;;;16.48;100.00;101163.78;5224948;28;20028;-71
2022/06/30 05:42:14;;;;;;;15.73;4.85;;;;;;;16.48;100.00;101163.78;5215020;28;20025;-70
2022/06/30 05:44:45;;;;;;;14.05;4.85;;;;;;;16.54;100.00;101165.69;5204175;28;20026;-71
2022/06/30 05:47:16;;;;;;;17.02;5.10;;;;;;;16.66;100.00;101168.66;5213076;28;20021;-71
2022/06/30 05:49:46;;;;;;;12.23;4.35;;;;;;;16.71;100.00;101168.94;5205250;28;20095;-71
2022/06/30 05:52:17;;;;;;;14.23;4.30;;;;;;;16.77;100.00;101173.59;5216286;28;20025;-72
2022/06/30 05:54:48;;;;;;;18.20;4.70;;;;;;;16.89;100.00;101189.28;5218459;28;20021;-71
2022/06/30 05:57:18;;;;;;;14.90;4.70;;;;;;;17.14;100.00;101181.50;5210291;28;20113;-72
2022/06/30 05:59:49;;;;;;;11.65;3.90;;;;;;;17.41;100.00;101182.44;5211496;28;20035;-71
2022/06/30 06:02:19;;;;;;;13.68;3.55;;;;;;;17.64;100.00;101191.06;5209797;28;20029;-72
2022/06/30 06:04:50;;;;;;;13.95;4.20;;;;;;;18.34;100.00;101197.91;5203852;28;20025;-71
2022/06/30 06:07:20;;;;;;;14.25;3.80;;;;;;;18.87;100.00;101206.00;5204161;28;20023;-71
2022/06/30 06:09:50;;;;;;;7.10;2.92;;;;;;;19.70;100.00;101199.88;5214427;28;20540;-71
2022/06/30 06:12:22;;;;;;;12.50;2.97;;;;;;;20.22;100.00;101197.03;5223766;28;20033;-71
2022/06/30 06:14:53;;;;;;;9.35;3.15;;;;;;;20.86;100.00;101195.84;5212739;28;20025;-71
2022/06/30 06:17:23;;;;;;;9.60;3.22;;;;;;;21.18;100.00;101201.97;5217101;28;20071;-71
2022/06/30 06:19:53;;;;;;;13.35;2.47;;;;;;;21.62;100.00;101197.28;5203990;28;20075;-71
2022/06/30 06:22:24;;;;;;;12.57;3.42;;;;;;;21.76;100.00;101206.13;5213509;28;20076;-71
2022/06/30 06:24:54;;;;;;;11.52;3.17;;;;;;;21.82;100.00;101194.25;5217004;28;20017;-71
2022/06/30 06:27:25;;;;;;;9.00;2.40;;;;;;;22.12;100.00;101184.16;5216887;28;20093;-71
2022/06/30 06:29:55;;;;;;;6.20;2.20;;;;;;;22.33;100.00;101184.66;5206784;28;20398;-71
2022/06/30 06:32:26;;;;;;;10.93;3.05;;;;;;;22.63;100.00;101182.66;5204027;28;20112;-71
2022/06/30 06:34:58;;;;;;;12.52;2.78;;;;;;;22.67;100.00;101193.97;5217026;28;20032;-71
2022/06/30 06:37:28;;;;;;;8.48;2.97;;;;;;;22.71;100.00;101193.25;5203505;28;20403;-71
2022/06/30 06:40:00;;;;;;;10.57;2.90;;;;;;;22.74;100.00;101197.41;5217239;28;20025;-72
2022/06/30 06:42:30;;;;;;;10.52;2.50;;;;;;;22.80;100.00;101201.13;5214977;28;20048;-71
2022/06/30 06:45:01;;;;;;;8.43;2.28;;;;;;;23.21;100.00;101208.34;5210259;28;20021;-72
2022/06/30 06:47:32;;;;;;;10.75;2.30;;;;;;;23.46;100.00;101216.25;5224125;28;20020;-72
2022/06/30 06:50:04;;;;;;;10.52;2.55;;;;;;;24.48;100.00;101208.00;5217228;28;20542;-72
2022/06/30 06:52:34;;;;;;;9.05;2.10;;;;;;;24.50;100.00;101202.31;5204573;28;20025;-72
2022/06/30 06:55:05;;;;;;;8.30;2.47;;;;;;;24.49;100.00;101200.63;5216042;28;20033;-72
2022/06/30 06:57:39;;;;;;;7.63;2.53;;;;;;;24.54;100.00;101200.69;5209220;28;20147;-72
2022/06/30 07:00:12;;;;;;;8.13;2.20;;;;;;;25.23;100.00;101198.41;5212976;28;20126;-72
2022/06/30 07:02:43;;;;;;;8.98;1.88;;;;;;;25.94;100.00;101197.59;5226948;28;20280;-72
2022/06/30 07:05:14;;;;;;;7.82;2.33;;;;;;;26.42;96.65;101215.06;5216390;28;20395;-72
2022/06/30 07:07:44;;;;;;;7.40;2.13;;;;;;;26.14;100.00;101207.94;5207614;28;20371;-72
2022/06/30 07:10:15;;;;;;;8.15;2.50;;;;;;;26.51;94.91;101205.28;5220686;28;20101;-72
2022/06/30 07:12:45;;;;;;;3.90;2.22;;;;;;;26.54;94.95;101208.31;5214144;28;20446;-72
2022/06/30 07:15:16;;;;;;;8.82;3.40;;;;;;;26.01;100.00;101212.78;5221475;28;20029;-72
2022/06/30 07:17:47;;;;;;;10.52;3.20;;;;;;;25.42;100.00;101214.59;5227719;28;20021;-72
2022/06/30 07:20:17;;;;;;;10.32;3.17;;;;;;;25.92;100.00;101208.84;5217274;28;20032;-72
2022/06/30 07:22:48;;;;;;;6.97;2.58;;;;;;;26.08;100.00;101218.91;5216974;28;20032;-72
2022/06/30 07:25:18;;;;;;;9.05;2.80;;;;;;;26.47;98.24;101209.63;5226966;28;20031;-72
2022/06/30 07:27:49;;;;;;;13.80;3.45;;;;;;;26.91;96.66;101207.47;5216623;28;20072;-72
2022/06/30 07:30:19;;;;;;;7.32;2.78;;;;;;;27.49;84.28;101213.81;5220635;28;20017;-72
2022/06/30 07:32:50;;;;;;;5.97;2.60;;;;;;;26.99;87.05;101209.69;5217937;28;20025;-72
2022/06/30 07:35:20;;;;;;;5.95;2.33;;;;;;;26.47;92.31;101215.16;5207651;28;20026;-72
2022/06/30 07:37:51;;;;;;;8.90;2.70;;;;;;;26.36;94.77;101211.47;5206323;28;20083;-72
2022/06/30 07:40:22;;;;;;;5.68;2.25;;;;;;;26.30;94.09;101218.81;5220229;28;20025;-72
2022/06/30 07:42:52;;;;;;;9.15;2.35;;;;;;;26.41;95.54;101225.25;5224750;28;20047;-72
2022/06/30 07:45:23;;;;;;;15.60;2.15;;;;;;;26.99;89.69;101215.19;5216311;28;20033;-72
2022/06/30 07:47:54;;;;;;;6.78;2.10;;;;;;;27.02;86.63;101228.44;5219776;28;20407;-72
2022/06/30 07:50:24;;;;;;;5.75;2.03;;;;;;;26.56;88.38;101228.16;5214478;28;20026;-72
2022/06/30 07:52:55;;;;;;;6.40;2.47;;;;;;;26.30;87.70;101229.81;5217192;28;20033;-72
2022/06/30 07:55:25;;;;;;;6.70;2.60;;;;;;;26.28;86.09;101231.19;5214926;28;20155;-72
2022/06/30 07:57:56;;;;;;;7.60;2.95;;;;;;;26.05;93.01;101227.66;5217956;28;20100;-72
2022/06/30 08:00:26;;;;;;;6.93;2.25;;;;;;;25.74;99.67;101229.22;5224461;28;20036;-72
2022/06/30 08:02:57;;;;;;;5.82;2.50;;;;;;;26.08;98.51;101231.81;5203746;28;20029;-72
2022/06/30 08:05:27;;;;;;;8.25;2.60;;;;;;;26.04;98.35;101230.66;5201997;28;20052;-72
2022/06/30 08:07:58;;;;;;;6.10;2.63;;;;;;;26.37;94.35;101223.28;5203793;28;20017;-72
2022/06/30 08:10:29;;;;;;;8.15;2.22;;;;;;;26.16;99.29;101236.03;5217754;28;20032;-72
2022/06/30 08:12:59;;;;;;;9.93;2.80;;;;;;;26.59;86.45;101233.09;5223042;28;20104;-72
2022/06/30 08:15:29;;;;;;;7.55;2.55;;;;;;;25.70;97.76;101232.75;5206037;28;20095;-72
2022/06/30 08:18:02;;;;;;;5.10;2.80;;;;;;;25.33;98.48;101222.44;5213962;28;20025;-72
2022/06/30 08:20:34;;;;;;;14.30;3.13;;;;;;;25.41;93.72;101223.91;5216006;28;20025;-72
2022/06/30 08:23:04;;;;;;;10.70;2.80;;;;;;;25.36;98.25;101216.44;5211596;28;20099;-72
2022/06/30 08:25:35;;;;;;;7.35;2.63;;;;;;;26.09;94.38;101219.72;5222337;28;20021;-72
2022/06/30 08:28:05;;;;;;;10.00;2.60;;;;;;;25.23;100.00;101223.13;5220726;28;20376;-72
2022/06/30 08:30:36;;;;;;;11.68;3.05;;;;;;;24.65;100.00;101226.38;5216191;28;20021;-72
2022/06/30 08:33:06;;;;;;;7.18;2.65;;;;;;;25.29;100.00;101224.03;5217846;28;20029;-72
2022/06/30 08:35:37;;;;;;;5.95;2.22;;;;;;;26.45;98.94;101229.13;5223217;28;20101;-72
2022/06/30 08:38:07;;;;;;;10.00;2.60;;;;;;;26.52;100.00;101217.94;5221304;28;20032;-72
2022/06/30 08:43:29;;;;;;;10.35;2.10;;;;;;;27.53;82.74;101220.44;5223111;28;20021;-72
2022/06/30 08:46:02;;;;;;;6.10;2.30;;;;;;;27.05;84.97;101227.91;5222966;28;20511;-72
2022/06/30 08:48:32;;;;;;;5.70;2.22;;;;;;;27.08;97.07;101234.84;5221745;28;20016;-72
2022/06/30 08:51:05;;;;;;;5.95;2.95;;;;;;;26.51;92.95;101239.13;5223073;28;20029;-72
2022/06/30 08:53:40;;;;;;;5.88;2.83;;;;;;;26.45;88.13;101242.06;5223014;28;20021;-72
2022/06/30 08:56:12;;;;;;;9.68;2.88;;;;;;;26.95;88.14;101241.59;5222231;28;20029;-72
2022/06/30 08:58:44;;;;;;;8.50;3.28;;;;;;;26.66;89.32;101229.28;5216249;28;20482;-72
2022/06/30 09:01:14;;;;;;;9.35;3.13;;;;;;;26.91;89.81;101214.88;5222411;28;20033;-72
2022/06/30 09:03:46;;;;;;;11.23;3.17;;;;;;;27.58;88.79;101234.22;5223387;28;20066;-72
2022/06/30 09:06:17;;;;;;;4.75;2.45;;;;;;;27.04;89.08;101231.75;5221300;28;20020;-72
2022/06/30 09:08:49;;;;;;;8.40;3.47;;;;;;;26.14;90.52;101241.75;5209370;28;20230;-72
2022/06/30 09:11:19;;;;;;;8.00;2.58;;;;;;;26.06;91.67;101239.50;5222614;28;20104;-72
2022/06/30 09:13:50;;;;;;;5.13;2.63;;;;;;;26.57;87.28;101235.31;5222412;28;20139;-72
2022/06/30 09:16:21;;;;;;;6.57;2.45;;;;;;;26.50;91.10;101217.34;5211952;28;20112;-72
2022/06/30 09:18:58;;;;;;;5.78;2.50;;;;;;;27.27;83.17;101214.00;5219596;28;20025;-72
2022/06/30 09:21:28;;;;;;;7.05;2.75;;;;;;;27.20;85.40;101218.09;5212458;28;20491;-72
2022/06/30 09:23:59;;;;;;;7.10;2.88;;;;;;;27.40;85.09;101215.41;5214513;28;20033;-72
2022/06/30 09:26:29;;;;;;;9.75;3.40;;;;;;;27.31;81.98;101201.34;5215722;28;20107;-72
2022/06/30 09:29:00;;;;;;;8.00;2.78;;;;;;;27.03;83.20;101198.97;5220080;28;20486;-72
2022/06/30 09:31:34;;;;;;;7.05;2.58;;;;;;;26.53;85.54;101212.16;5222705;28;20063;-72
2022/06/30 09:34:19;;;;;;;8.15;3.05;;;;;;;26.06;88.07;101212.00;5222398;28;20036;-72
2022/06/30 09:36:52;;;;;;;6.05;1.92;;;;;;;25.09;100.00;101202.63;5222075;28;20425;-72
2022/06/30 09:39:22;;;;;;;5.93;2.22;;;;;;;25.05;100.00;101207.78;5222014;28;20029;-72
2022/06/30 09:41:53;;;;;;;10.27;2.22;;;;;;;24.87;100.00;101208.06;5222486;28;20078;-72
2022/06/30 09:44:24;;;;;;;6.82;2.22;;;;;;;24.76;100.00;101198.03;5214418;28;20029;-72
2022/06/30 09:46:57;;;;;;;5.90;2.60;;;;;;;24.53;100.00;101210.84;5215322;28;20016;-72
2022/06/30 09:49:30;;;;;;;9.65;2.50;;;;;;;24.16;100.00;101209.66;5219385;28;20489;-72
2022/06/30 09:52:36;;;;;;;9.02;2.22;;;;;;;24.36;100.00;101215.50;5222113;28;20025;-72
2022/06/30 09:55:08;;;;;;;4.60;2.17;;;;;;;24.18;100.00;101219.28;5221410;28;20025;-72
2022/06/30 09:57:43;;;;;;;5.68;2.42;;;;;;;24.20;100.00;101216.31;5214887;28;20116;-72
2022/06/30 10:00:16;;;;;;;5.95;1.63;;;;;;;24.22;100.00;101214.13;5222125;28;20024;-72
2022/06/30 10:02:49;;;;;;;5.82;2.10;;;;;;;23.89;100.00;101221.22;5216416;28;20101;-72
2022/06/30 10:05:20;;;;;;;6.55;1.90;;;;;;;23.83;100.00;101227.69;5214073;28;20029;-71
2022/06/30 10:07:50;;;;;;;7.63;2.10;;;;;;;23.63;100.00;101230.00;5213858;28;20021;-72
2022/06/30 10:10:21;;;;;;;5.28;2.40;;;;;;;23.57;100.00;101228.22;5202580;28;20021;-72
2022/06/30 10:12:52;;;;;;;7.35;2.30;;;;;;;23.49;100.00;101219.34;5213242;28;20056;-72
2022/06/30 10:15:24;;;;;;;7.53;2.15;;;;;;;23.73;100.00;101222.84;5216902;28;20487;-72
2022/06/30 10:17:56;;;;;;;7.72;2.72;;;;;;;23.62;100.00;101222.84;5221713;28;20035;-71
2022/06/30 10:20:28;;;;;;;4.63;2.33;;;;;;;23.55;100.00;101216.72;5209531;28;20552;-72
2022/06/30 10:23:00;;;;;;;6.85;2.33;;;;;;;23.35;100.00;101215.22;5212580;28;20029;-71
2022/06/30 10:25:32;;;;;;;8.07;2.22;;;;;;;22.96;100.00;101223.13;5221150;28;20025;-72
2022/06/30 10:28:03;;;;;;;4.43;1.95;;;;;;;22.68;100.00;101226.53;5217711;28;20090;-72
2022/06/30 10:31:00;;;;;;;20.27;4.35;;;;;;;22.56;100.00;101233.09;5220409;28;20521;-72
2022/06/30 10:33:39;;;;;;;13.43;3.63;;;;;;;22.48;100.00;101231.50;5221817;28;20133;-72
2022/06/30 10:36:16;;;;;;;21.30;4.38;;;;;;;22.55;100.00;101223.22;5220347;28;20025;-71
2022/06/30 10:38:57;;;;;;;7.32;2.78;;;;;;;22.45;100.00;101224.63;5217784;28;20118;-72
2022/06/30 10:41:28;;;;;;;3.63;2.00;;;;;;;22.53;100.00;101212.50;5222134;28;20025;-72
2022/06/30 10:44:21;;;;;;;8.43;2.30;;;;;;;22.29;100.00;101211.66;5225973;28;20025;-72
2022/06/30 10:46:52;;;;;;;8.60;2.10;;;;;;;22.18;100.00;101190.59;5225910;28;20490;-71
2022/06/30 10:49:24;;;;;;;5.95;2.22;;;;;;;21.98;100.00;101178.03;5212074;28;20033;-72
2022/06/30 10:52:16;;;;;;;6.15;2.45;;;;;;;21.86;100.00;101190.84;5224462;28;20028;-72
2022/06/30 10:54:48;;;;;;;31.23;8.32;;;;;;;21.78;100.00;101209.44;5225949;28;20051;-71
2022/06/30 10:57:19;;;;;;;15.88;4.78;;;;;;;21.73;100.00;101219.16;5218308;28;20030;-71
2022/06/30 10:59:50;;;;;;;24.70;7.82;;;;;;;21.66;100.00;101220.31;5224450;28;20027;-71
2022/06/30 11:02:23;;;;;;;25.30;7.20;;;;;;;21.69;100.00;101222.59;5212747;28;20048;-71
2022/06/30 11:05:23;;;;;;;40.00;10.57;;;;;;;21.66;100.00;101223.88;5225289;28;20508;-71
2022/06/30 11:07:54;;;;;;;13.10;3.83;;;;;;;21.57;100.00;101213.50;5227976;28;20021;-71
2022/06/30 11:10:24;;;;;;;8.55;2.13;;;;;;;21.78;100.00;101195.78;5212013;28;20036;-71
2022/06/30 11:12:56;;;;;;;8.45;2.78;;;;;;;21.88;100.00;101196.88;5211597;28;20033;-71
2022/06/30 11:15:48;;;;;;;5.78;1.92;;;;;;;21.89;100.00;101184.09;5220752;28;20021;-72
2022/06/30 11:18:20;;;;;;;6.55;2.08;;;;;;;21.80;100.00;101167.19;5224644;28;20032;-71
2022/06/30 11:20:52;;;;;;;6.10;2.00;;;;;;;21.88;100.00;101160.56;5217151;28;20064;-71
2022/06/30 11:23:23;;;;;;;5.80;2.28;;;;;;;21.96;100.00;101158.34;5224823;28;20104;-71
2022/06/30 11:28:43;;;;;;;5.65;2.50;;;;;;;21.97;100.00;101159.16;5221396;28;20025;-71
2022/06/30 11:31:32;;;;;;;10.13;2.85;;;;;;;22.02;100.00;101161.19;5224650;28;20098;-71
2022/06/30 11:34:06;;;;;;;8.55;2.50;;;;;;;21.85;100.00;101172.78;5223616;28;20024;-71
2022/06/30 11:36:39;;;;;;;6.32;2.47;;;;;;;21.81;100.00;101165.28;5220054;28;20057;-72
2022/06/30 11:39:14;;;;;;;8.77;2.40;;;;;;;21.61;100.00;101158.22;5215348;28;20029;-71
2022/06/30 11:41:56;;;;;;;7.20;2.15;;;;;;;21.47;100.00;101170.38;5223155;28;20536;-71
2022/06/30 11:44:45;;;;;;;8.48;2.50;;;;;;;21.51;100.00;101170.75;5224529;28;20025;-72
2022/06/30 11:47:17;;;;;;;10.27;2.67;;;;;;;21.48;100.00;101187.59;5223853;28;20060;-71
2022/06/30 11:49:50;;;;;;;4.97;2.75;;;;;;;21.57;100.00;101202.59;5224422;28;20025;-71
2022/06/30 11:52:31;;;;;;;8.50;2.25;;;;;;;21.80;100.00;101205.44;5212033;28;20375;-71